sensor_id;sensor_type;location;lat;lon;timestamp;P1;durP1;ratioP1;P2;durP2;ratioP2
66212;SDS011;53015;50.046;8.238;2024-02-26T00:00:56;1.00;;;0.70;;
66212;SDS011;53015;50.046;8.238;2024-02-26T00:03:21;1.08;;;0.70;;
66212;SDS011;53015;50.046;8.238;2024-02-26T00:05:47;1.45;;;0.80;;
66212;SDS011;53015;50.046;8.238;2024-02-26T00:08:12;0.85;;;0.70;;
66212;SDS011;53015;50.046;8.238;2024-02-26T00:10:39;1.48;;;0.80;;
66212;SDS011;53015;50.046;8.238;2024-02-26T00:13:05;0.52;;;0.50;;
66212;SDS011;53015;50.046;8.238;2024-02-26T00:15:30;1.02;;;0.60;;
66212;SDS011;53015;50.046;8.238;2024-02-26T00:17:56;2.85;;;0.70;;
66212;SDS011;53015;50.046;8.238;2024-02-26T00:20:21;1.20;;;0.70;;
66212;SDS011;53015;50.046;8.238;2024-02-26T00:22:47;0.30;;;0.30;;
66212;SDS011;53015;50.046;8.238;2024-02-26T00:25:12;1.08;;;0.55;;
66212;SDS011;53015;50.046;8.238;2024-02-26T00:27:39;1.08;;;0.50;;
66212;SDS011;53015;50.046;8.238;2024-02-26T00:30:05;1.20;;;0.50;;
66212;SDS011;53015;50.046;8.238;2024-02-26T00:32:32;0.75;;;0.60;;
66212;SDS011;53015;50.046;8.238;2024-02-26T00:34:57;1.40;;;0.47;;
66212;SDS011;53015;50.046;8.238;2024-02-26T00:37:23;0.60;;;0.52;;
66212;SDS011;53015;50.046;8.238;2024-02-26T00:39:48;0.77;;;0.68;;
66212;SDS011;53015;50.046;8.238;2024-02-26T00:42:13;0.80;;;0.80;;
66212;SDS011;53015;50.046;8.238;2024-02-26T00:44:40;1.75;;;0.50;;
66212;SDS011;53015;50.046;8.238;2024-02-26T00:47:06;3.65;;;0.70;;
66212;SDS011;53015;50.046;8.238;2024-02-26T00:49:31;0.47;;;0.47;;
66212;SDS011;53015;50.046;8.238;2024-02-26T00:51:58;1.52;;;0.77;;
66212;SDS011;53015;50.046;8.238;2024-02-26T00:54:24;1.02;;;0.70;;
66212;SDS011;53015;50.046;8.238;2024-02-26T00:56:49;2.40;;;0.82;;
66212;SDS011;53015;50.046;8.238;2024-02-26T00:59:15;1.48;;;0.73;;
66212;SDS011;53015;50.046;8.238;2024-02-26T01:01:41;0.75;;;0.60;;
66212;SDS011;53015;50.046;8.238;2024-02-26T01:04:07;0.70;;;0.70;;
66212;SDS011;53015;50.046;8.238;2024-02-26T01:06:32;1.13;;;0.73;;
66212;SDS011;53015;50.046;8.238;2024-02-26T01:08:58;0.63;;;0.50;;
66212;SDS011;53015;50.046;8.238;2024-02-26T01:11:23;1.08;;;0.80;;
66212;SDS011;53015;50.046;8.238;2024-02-26T01:13:49;1.10;;;0.73;;
66212;SDS011;53015;50.046;8.238;2024-02-26T01:16:15;1.38;;;0.60;;
66212;SDS011;53015;50.046;8.238;2024-02-26T01:18:42;1.80;;;0.73;;
66212;SDS011;53015;50.046;8.238;2024-02-26T01:21:07;1.00;;;0.70;;
66212;SDS011;53015;50.046;8.238;2024-02-26T01:23:32;2.55;;;1.02;;
66212;SDS011;53015;50.046;8.238;2024-02-26T01:25:58;3.97;;;0.82;;
66212;SDS011;53015;50.046;8.238;2024-02-26T01:28:23;1.13;;;0.85;;
66212;SDS011;53015;50.046;8.238;2024-02-26T01:30:49;1.90;;;0.60;;
66212;SDS011;53015;50.046;8.238;2024-02-26T01:33:14;1.13;;;0.70;;
66212;SDS011;53015;50.046;8.238;2024-02-26T01:35:41;0.70;;;0.68;;
66212;SDS011;53015;50.046;8.238;2024-02-26T01:38:07;0.80;;;0.75;;
66212;SDS011;53015;50.046;8.238;2024-02-26T01:40:32;1.10;;;0.93;;
66212;SDS011;53015;50.046;8.238;2024-02-26T01:42:58;0.98;;;0.80;;
66212;SDS011;53015;50.046;8.238;2024-02-26T01:45:24;0.80;;;0.80;;
66212;SDS011;53015;50.046;8.238;2024-02-26T01:47:50;1.40;;;0.90;;
66212;SDS011;53015;50.046;8.238;2024-02-26T01:50:16;1.13;;;0.95;;
66212;SDS011;53015;50.046;8.238;2024-02-26T01:52:43;2.58;;;0.80;;
66212;SDS011;53015;50.046;8.238;2024-02-26T01:55:09;1.80;;;0.65;;
66212;SDS011;53015;50.046;8.238;2024-02-26T01:57:35;2.95;;;0.70;;
66212;SDS011;53015;50.046;8.238;2024-02-26T02:00:00;0.93;;;0.80;;
66212;SDS011;53015;50.046;8.238;2024-02-26T02:02:26;0.90;;;0.70;;
66212;SDS011;53015;50.046;8.238;2024-02-26T02:04:52;4.30;;;0.90;;
66212;SDS011;53015;50.046;8.238;2024-02-26T02:07:18;1.83;;;0.80;;
66212;SDS011;53015;50.046;8.238;2024-02-26T02:09:45;1.55;;;0.90;;
66212;SDS011;53015;50.046;8.238;2024-02-26T02:12:11;2.03;;;0.90;;
66212;SDS011;53015;50.046;8.238;2024-02-26T02:14:36;1.67;;;1.00;;
66212;SDS011;53015;50.046;8.238;2024-02-26T02:17:02;0.80;;;0.70;;
66212;SDS011;53015;50.046;8.238;2024-02-26T02:19:27;1.25;;;0.82;;
66212;SDS011;53015;50.046;8.238;2024-02-26T02:21:54;0.88;;;0.80;;
66212;SDS011;53015;50.046;8.238;2024-02-26T02:24:20;1.73;;;1.10;;
66212;SDS011;53015;50.046;8.238;2024-02-26T02:26:45;1.90;;;0.88;;
66212;SDS011;53015;50.046;8.238;2024-02-26T02:29:11;1.45;;;0.88;;
66212;SDS011;53015;50.046;8.238;2024-02-26T02:31:37;1.42;;;0.80;;
66212;SDS011;53015;50.046;8.238;2024-02-26T02:34:03;0.65;;;0.60;;
66212;SDS011;53015;50.046;8.238;2024-02-26T02:36:28;1.23;;;0.85;;
66212;SDS011;53015;50.046;8.238;2024-02-26T02:38:55;0.82;;;0.65;;
66212;SDS011;53015;50.046;8.238;2024-02-26T02:41:21;1.73;;;0.90;;
66212;SDS011;53015;50.046;8.238;2024-02-26T02:43:46;1.55;;;0.80;;
66212;SDS011;53015;50.046;8.238;2024-02-26T02:46:12;1.63;;;0.70;;
66212;SDS011;53015;50.046;8.238;2024-02-26T02:48:38;3.45;;;1.02;;
66212;SDS011;53015;50.046;8.238;2024-02-26T02:51:04;1.30;;;1.10;;
66212;SDS011;53015;50.046;8.238;2024-02-26T02:53:30;2.20;;;0.88;;
66212;SDS011;53015;50.046;8.238;2024-02-26T02:55:57;1.13;;;0.90;;
66212;SDS011;53015;50.046;8.238;2024-02-26T02:58:22;2.92;;;0.95;;
66212;SDS011;53015;50.046;8.238;2024-02-26T03:00:48;1.88;;;1.02;;
66212;SDS011;53015;50.046;8.238;2024-02-26T03:03:13;1.98;;;0.90;;
66212;SDS011;53015;50.046;8.238;2024-02-26T03:05:39;1.17;;;0.95;;
66212;SDS011;53015;50.046;8.238;2024-02-26T03:08:04;1.90;;;1.00;;
66212;SDS011;53015;50.046;8.238;2024-02-26T03:10:30;1.65;;;1.08;;
66212;SDS011;53015;50.046;8.238;2024-02-26T03:12:57;0.98;;;0.90;;
66212;SDS011;53015;50.046;8.238;2024-02-26T03:15:22;1.70;;;1.00;;
66212;SDS011;53015;50.046;8.238;2024-02-26T03:17:48;1.38;;;0.90;;
66212;SDS011;53015;50.046;8.238;2024-02-26T03:20:14;0.93;;;0.73;;
66212;SDS011;53015;50.046;8.238;2024-02-26T03:22:41;1.15;;;1.05;;
66212;SDS011;53015;50.046;8.238;2024-02-26T03:25:07;3.90;;;0.93;;
66212;SDS011;53015;50.046;8.238;2024-02-26T03:27:33;1.60;;;1.10;;
66212;SDS011;53015;50.046;8.238;2024-02-26T03:30:00;2.80;;;1.23;;
66212;SDS011;53015;50.046;8.238;2024-02-26T03:32:25;2.63;;;1.35;;
66212;SDS011;53015;50.046;8.238;2024-02-26T03:34:51;1.40;;;1.20;;
66212;SDS011;53015;50.046;8.238;2024-02-26T03:37:16;3.70;;;1.20;;
66212;SDS011;53015;50.046;8.238;2024-02-26T03:39:42;4.00;;;1.50;;
66212;SDS011;53015;50.046;8.238;2024-02-26T03:42:07;2.35;;;1.10;;
66212;SDS011;53015;50.046;8.238;2024-02-26T03:44:33;1.67;;;1.00;;
66212;SDS011;53015;50.046;8.238;2024-02-26T03:47:00;2.47;;;1.10;;
66212;SDS011;53015;50.046;8.238;2024-02-26T03:49:25;1.52;;;1.10;;
66212;SDS011;53015;50.046;8.238;2024-02-26T03:51:51;0.95;;;0.90;;
66212;SDS011;53015;50.046;8.238;2024-02-26T03:54:16;1.92;;;1.27;;
66212;SDS011;53015;50.046;8.238;2024-02-26T03:56:42;1.35;;;1.02;;
66212;SDS011;53015;50.046;8.238;2024-02-26T03:59:07;1.73;;;1.15;;
66212;SDS011;53015;50.046;8.238;2024-02-26T04:01:33;2.13;;;1.10;;
66212;SDS011;53015;50.046;8.238;2024-02-26T04:03:59;2.85;;;1.20;;
66212;SDS011;53015;50.046;8.238;2024-02-26T04:06:25;1.20;;;1.10;;
66212;SDS011;53015;50.046;8.238;2024-02-26T04:08:50;1.80;;;1.40;;
66212;SDS011;53015;50.046;8.238;2024-02-26T04:11:16;2.47;;;1.77;;
66212;SDS011;53015;50.046;8.238;2024-02-26T04:13:41;2.88;;;1.58;;
66212;SDS011;53015;50.046;8.238;2024-02-26T04:16:07;2.72;;;1.30;;
66212;SDS011;53015;50.046;8.238;2024-02-26T04:18:32;1.50;;;1.40;;
66212;SDS011;53015;50.046;8.238;2024-02-26T04:20:59;1.65;;;1.20;;
66212;SDS011;53015;50.046;8.238;2024-02-26T04:23:25;3.22;;;1.33;;
66212;SDS011;53015;50.046;8.238;2024-02-26T04:25:50;1.80;;;1.40;;
66212;SDS011;53015;50.046;8.238;2024-02-26T04:28:16;3.63;;;1.27;;
66212;SDS011;53015;50.046;8.238;2024-02-26T04:30:41;1.90;;;1.20;;
66212;SDS011;53015;50.046;8.238;2024-02-26T04:33:07;3.10;;;1.20;;
66212;SDS011;53015;50.046;8.238;2024-02-26T04:35:32;3.53;;;1.58;;
66212;SDS011;53015;50.046;8.238;2024-02-26T04:37:59;3.53;;;1.50;;
66212;SDS011;53015;50.046;8.238;2024-02-26T04:40:25;1.58;;;1.10;;
66212;SDS011;53015;50.046;8.238;2024-02-26T04:42:50;5.25;;;1.50;;
66212;SDS011;53015;50.046;8.238;2024-02-26T04:45:16;4.50;;;1.33;;
66212;SDS011;53015;50.046;8.238;2024-02-26T04:47:41;3.60;;;2.03;;
66212;SDS011;53015;50.046;8.238;2024-02-26T04:50:07;3.47;;;1.80;;
66212;SDS011;53015;50.046;8.238;2024-02-26T04:52:33;2.67;;;1.50;;
66212;SDS011;53015;50.046;8.238;2024-02-26T04:54:59;3.17;;;1.60;;
66212;SDS011;53015;50.046;8.238;2024-02-26T04:57:25;2.63;;;1.30;;
66212;SDS011;53015;50.046;8.238;2024-02-26T04:59:50;2.35;;;1.60;;
66212;SDS011;53015;50.046;8.238;2024-02-26T05:02:16;3.13;;;1.67;;
66212;SDS011;53015;50.046;8.238;2024-02-26T05:04:41;2.47;;;1.63;;
66212;SDS011;53015;50.046;8.238;2024-02-26T05:07:07;2.05;;;1.33;;
66212;SDS011;53015;50.046;8.238;2024-02-26T05:09:32;2.40;;;1.33;;
66212;SDS011;53015;50.046;8.238;2024-02-26T05:11:59;3.22;;;1.80;;
66212;SDS011;53015;50.046;8.238;2024-02-26T05:14:24;4.72;;;1.77;;
66212;SDS011;53015;50.046;8.238;2024-02-26T05:16:50;2.47;;;1.45;;
66212;SDS011;53015;50.046;8.238;2024-02-26T05:19:15;4.72;;;1.73;;
66212;SDS011;53015;50.046;8.238;2024-02-26T05:21:41;2.65;;;1.40;;
66212;SDS011;53015;50.046;8.238;2024-02-26T05:24:06;3.35;;;1.23;;
66212;SDS011;53015;50.046;8.238;2024-02-26T05:26:32;2.08;;;1.58;;
66212;SDS011;53015;50.046;8.238;2024-02-26T05:28:59;2.80;;;1.20;;
66212;SDS011;53015;50.046;8.238;2024-02-26T05:31:25;3.00;;;1.60;;
66212;SDS011;53015;50.046;8.238;2024-02-26T05:33:51;3.67;;;1.40;;
66212;SDS011;53015;50.046;8.238;2024-02-26T05:36:19;2.85;;;1.30;;
66212;SDS011;53015;50.046;8.238;2024-02-26T05:38:45;3.05;;;1.30;;
66212;SDS011;53015;50.046;8.238;2024-02-26T05:41:11;3.47;;;1.50;;
66212;SDS011;53015;50.046;8.238;2024-02-26T05:43:36;3.75;;;1.40;;
66212;SDS011;53015;50.046;8.238;2024-02-26T05:46:03;4.75;;;1.45;;
66212;SDS011;53015;50.046;8.238;2024-02-26T05:48:28;3.10;;;1.52;;
66212;SDS011;53015;50.046;8.238;2024-02-26T05:50:54;4.88;;;1.60;;
66212;SDS011;53015;50.046;8.238;2024-02-26T05:53:19;4.82;;;1.60;;
66212;SDS011;53015;50.046;8.238;2024-02-26T05:55:45;2.75;;;1.38;;
66212;SDS011;53015;50.046;8.238;2024-02-26T05:58:10;3.58;;;1.48;;
66212;SDS011;53015;50.046;8.238;2024-02-26T06:00:36;3.55;;;1.73;;
66212;SDS011;53015;50.046;8.238;2024-02-26T06:03:02;3.25;;;1.45;;
66212;SDS011;53015;50.046;8.238;2024-02-26T06:05:28;2.65;;;1.48;;
66212;SDS011;53015;50.046;8.238;2024-02-26T06:07:53;4.90;;;1.55;;
66212;SDS011;53015;50.046;8.238;2024-02-26T06:10:19;3.10;;;1.50;;
66212;SDS011;53015;50.046;8.238;2024-02-26T06:12:45;3.40;;;1.55;;
66212;SDS011;53015;50.046;8.238;2024-02-26T06:15:10;3.38;;;1.58;;
66212;SDS011;53015;50.046;8.238;2024-02-26T06:17:36;2.53;;;1.65;;
66212;SDS011;53015;50.046;8.238;2024-02-26T06:20:03;2.67;;;1.60;;
66212;SDS011;53015;50.046;8.238;2024-02-26T06:22:29;3.50;;;1.42;;
66212;SDS011;53015;50.046;8.238;2024-02-26T06:24:55;3.20;;;1.30;;
66212;SDS011;53015;50.046;8.238;2024-02-26T06:27:20;2.97;;;1.55;;
66212;SDS011;53015;50.046;8.238;2024-02-26T06:29:46;4.00;;;1.60;;
66212;SDS011;53015;50.046;8.238;2024-02-26T06:32:11;2.65;;;1.50;;
66212;SDS011;53015;50.046;8.238;2024-02-26T06:34:37;4.20;;;1.60;;
66212;SDS011;53015;50.046;8.238;2024-02-26T06:37:04;2.65;;;1.50;;
66212;SDS011;53015;50.046;8.238;2024-02-26T06:39:29;2.47;;;1.77;;
66212;SDS011;53015;50.046;8.238;2024-02-26T06:41:55;5.47;;;2.17;;
66212;SDS011;53015;50.046;8.238;2024-02-26T06:44:20;3.75;;;2.00;;
66212;SDS011;53015;50.046;8.238;2024-02-26T06:46:46;1.80;;;1.70;;
66212;SDS011;53015;50.046;8.238;2024-02-26T06:49:11;3.20;;;1.95;;
66212;SDS011;53015;50.046;8.238;2024-02-26T06:51:37;3.30;;;2.17;;
66212;SDS011;53015;50.046;8.238;2024-02-26T06:54:04;3.88;;;2.00;;
66212;SDS011;53015;50.046;8.238;2024-02-26T06:56:30;3.20;;;1.85;;
66212;SDS011;53015;50.046;8.238;2024-02-26T06:58:55;2.83;;;2.28;;
66212;SDS011;53015;50.046;8.238;2024-02-26T07:01:21;3.28;;;2.60;;
66212;SDS011;53015;50.046;8.238;2024-02-26T07:03:46;4.95;;;2.55;;
66212;SDS011;53015;50.046;8.238;2024-02-26T07:06:12;4.80;;;2.50;;
66212;SDS011;53015;50.046;8.238;2024-02-26T07:08:37;5.78;;;2.72;;
66212;SDS011;53015;50.046;8.238;2024-02-26T07:11:04;5.03;;;2.88;;
66212;SDS011;53015;50.046;8.238;2024-02-26T07:13:32;4.97;;;2.90;;
66212;SDS011;53015;50.046;8.238;2024-02-26T07:15:57;6.45;;;3.15;;
66212;SDS011;53015;50.046;8.238;2024-02-26T07:18:23;5.30;;;3.13;;
66212;SDS011;53015;50.046;8.238;2024-02-26T07:20:48;6.95;;;2.80;;
66212;SDS011;53015;50.046;8.238;2024-02-26T07:23:14;4.82;;;3.03;;
66212;SDS011;53015;50.046;8.238;2024-02-26T07:25:39;3.63;;;2.80;;
66212;SDS011;53015;50.046;8.238;2024-02-26T07:28:06;3.20;;;2.65;;
66212;SDS011;53015;50.046;8.238;2024-02-26T07:30:32;5.53;;;3.03;;
66212;SDS011;53015;50.046;8.238;2024-02-26T07:32:57;5.43;;;2.88;;
66212;SDS011;53015;50.046;8.238;2024-02-26T07:35:23;5.03;;;3.00;;
66212;SDS011;53015;50.046;8.238;2024-02-26T07:37:48;4.25;;;2.75;;
66212;SDS011;53015;50.046;8.238;2024-02-26T07:40:14;4.57;;;2.90;;
66212;SDS011;53015;50.046;8.238;2024-02-26T07:42:40;6.03;;;3.35;;
66212;SDS011;53015;50.046;8.238;2024-02-26T07:45:07;9.23;;;3.40;;
66212;SDS011;53015;50.046;8.238;2024-02-26T07:47:33;4.18;;;2.55;;
66212;SDS011;53015;50.046;8.238;2024-02-26T07:49:58;7.13;;;2.55;;
66212;SDS011;53015;50.046;8.238;2024-02-26T07:52:24;10.93;;;2.75;;
66212;SDS011;53015;50.046;8.238;2024-02-26T07:54:49;6.50;;;3.15;;
66212;SDS011;53015;50.046;8.238;2024-02-26T07:57:15;3.22;;;2.67;;
66212;SDS011;53015;50.046;8.238;2024-02-26T07:59:40;4.45;;;2.70;;
66212;SDS011;53015;50.046;8.238;2024-02-26T08:02:07;5.30;;;2.65;;
66212;SDS011;53015;50.046;8.238;2024-02-26T08:04:33;4.55;;;2.58;;
66212;SDS011;53015;50.046;8.238;2024-02-26T08:06:58;4.60;;;2.75;;
66212;SDS011;53015;50.046;8.238;2024-02-26T08:09:23;6.95;;;2.90;;
66212;SDS011;53015;50.046;8.238;2024-02-26T08:11:49;4.82;;;2.65;;
66212;SDS011;53015;50.046;8.238;2024-02-26T08:14:14;3.72;;;2.28;;
66212;SDS011;53015;50.046;8.238;2024-02-26T08:16:40;5.22;;;2.65;;
66212;SDS011;53015;50.046;8.238;2024-02-26T08:19:07;3.90;;;2.60;;
66212;SDS011;53015;50.046;8.238;2024-02-26T08:21:32;3.97;;;2.40;;
66212;SDS011;53015;50.046;8.238;2024-02-26T08:23:58;3.40;;;2.40;;
66212;SDS011;53015;50.046;8.238;2024-02-26T08:26:23;4.65;;;2.70;;
66212;SDS011;53015;50.046;8.238;2024-02-26T08:28:49;3.75;;;2.50;;
66212;SDS011;53015;50.046;8.238;2024-02-26T08:31:14;6.05;;;2.40;;
66212;SDS011;53015;50.046;8.238;2024-02-26T08:33:40;5.13;;;2.40;;
66212;SDS011;53015;50.046;8.238;2024-02-26T08:36:07;6.63;;;3.05;;
66212;SDS011;53015;50.046;8.238;2024-02-26T08:38:33;4.75;;;2.60;;
66212;SDS011;53015;50.046;8.238;2024-02-26T08:40:58;5.03;;;2.55;;
66212;SDS011;53015;50.046;8.238;2024-02-26T08:43:24;4.82;;;2.88;;
66212;SDS011;53015;50.046;8.238;2024-02-26T08:45:49;3.25;;;2.22;;
66212;SDS011;53015;50.046;8.238;2024-02-26T08:48:15;4.75;;;2.72;;
66212;SDS011;53015;50.046;8.238;2024-02-26T08:50:40;4.10;;;2.55;;
66212;SDS011;53015;50.046;8.238;2024-02-26T08:53:07;4.72;;;2.53;;
66212;SDS011;53015;50.046;8.238;2024-02-26T08:55:32;6.07;;;2.50;;
66212;SDS011;53015;50.046;8.238;2024-02-26T08:57:58;3.10;;;2.00;;
66212;SDS011;53015;50.046;8.238;2024-02-26T09:00:23;6.45;;;2.45;;
66212;SDS011;53015;50.046;8.238;2024-02-26T09:02:49;4.57;;;2.22;;
66212;SDS011;53015;50.046;8.238;2024-02-26T09:05:14;3.58;;;2.58;;
66212;SDS011;53015;50.046;8.238;2024-02-26T09:07:40;4.30;;;2.30;;
66212;SDS011;53015;50.046;8.238;2024-02-26T09:10:07;4.60;;;2.65;;
66212;SDS011;53015;50.046;8.238;2024-02-26T09:12:33;5.30;;;3.22;;
66212;SDS011;53015;50.046;8.238;2024-02-26T09:14:59;7.18;;;3.83;;
66212;SDS011;53015;50.046;8.238;2024-02-26T09:17:24;6.35;;;3.15;;
66212;SDS011;53015;50.046;8.238;2024-02-26T09:19:50;5.35;;;2.63;;
66212;SDS011;53015;50.046;8.238;2024-02-26T09:22:15;5.75;;;2.50;;
66212;SDS011;53015;50.046;8.238;2024-02-26T09:24:41;3.75;;;2.75;;
66212;SDS011;53015;50.046;8.238;2024-02-26T09:27:07;3.92;;;2.50;;
66212;SDS011;53015;50.046;8.238;2024-02-26T09:29:35;4.20;;;2.40;;
66212;SDS011;53015;50.046;8.238;2024-02-26T09:32:00;6.68;;;2.50;;
66212;SDS011;53015;50.046;8.238;2024-02-26T09:34:26;5.93;;;3.10;;
66212;SDS011;53015;50.046;8.238;2024-02-26T09:36:51;5.72;;;2.92;;
66212;SDS011;53015;50.046;8.238;2024-02-26T09:39:17;3.80;;;2.80;;
66212;SDS011;53015;50.046;8.238;2024-02-26T09:41:42;5.53;;;2.60;;
66212;SDS011;53015;50.046;8.238;2024-02-26T09:44:11;3.85;;;2.90;;
66212;SDS011;53015;50.046;8.238;2024-02-26T09:46:40;4.53;;;2.15;;
66212;SDS011;53015;50.046;8.238;2024-02-26T09:49:06;3.95;;;2.67;;
66212;SDS011;53015;50.046;8.238;2024-02-26T09:51:33;5.63;;;2.42;;
66212;SDS011;53015;50.046;8.238;2024-02-26T09:53:59;6.35;;;2.45;;
66212;SDS011;53015;50.046;8.238;2024-02-26T09:56:25;4.72;;;2.70;;
66212;SDS011;53015;50.046;8.238;2024-02-26T09:58:50;5.70;;;2.28;;
66212;SDS011;53015;50.046;8.238;2024-02-26T10:01:19;3.90;;;2.50;;
66212;SDS011;53015;50.046;8.238;2024-02-26T10:03:46;4.72;;;2.67;;
66212;SDS011;53015;50.046;8.238;2024-02-26T10:06:16;5.30;;;2.58;;
66212;SDS011;53015;50.046;8.238;2024-02-26T10:08:42;4.07;;;2.72;;
66212;SDS011;53015;50.046;8.238;2024-02-26T10:11:08;3.17;;;2.55;;
66212;SDS011;53015;50.046;8.238;2024-02-26T10:13:35;3.08;;;2.40;;
66212;SDS011;53015;50.046;8.238;2024-02-26T10:16:00;4.88;;;2.83;;
66212;SDS011;53015;50.046;8.238;2024-02-26T10:18:27;4.90;;;2.55;;
66212;SDS011;53015;50.046;8.238;2024-02-26T10:20:59;4.90;;;3.10;;
66212;SDS011;53015;50.046;8.238;2024-02-26T10:23:25;4.50;;;2.72;;
66212;SDS011;53015;50.046;8.238;2024-02-26T10:25:52;3.85;;;2.40;;
66212;SDS011;53015;50.046;8.238;2024-02-26T10:28:18;4.88;;;2.85;;
66212;SDS011;53015;50.046;8.238;2024-02-26T10:30:44;3.95;;;2.17;;
66212;SDS011;53015;50.046;8.238;2024-02-26T10:33:09;4.82;;;2.58;;
66212;SDS011;53015;50.046;8.238;2024-02-26T10:35:36;5.35;;;2.60;;
66212;SDS011;53015;50.046;8.238;2024-02-26T10:38:02;4.45;;;3.03;;
66212;SDS011;53015;50.046;8.238;2024-02-26T10:40:27;4.28;;;2.75;;
66212;SDS011;53015;50.046;8.238;2024-02-26T10:42:53;6.00;;;3.05;;
66212;SDS011;53015;50.046;8.238;2024-02-26T10:45:18;5.15;;;2.95;;
66212;SDS011;53015;50.046;8.238;2024-02-26T10:47:44;4.00;;;2.47;;
66212;SDS011;53015;50.046;8.238;2024-02-26T10:50:10;4.45;;;2.78;;
66212;SDS011;53015;50.046;8.238;2024-02-26T10:52:39;4.75;;;2.88;;
66212;SDS011;53015;50.046;8.238;2024-02-26T10:55:07;4.68;;;2.83;;
66212;SDS011;53015;50.046;8.238;2024-02-26T10:57:33;6.65;;;2.75;;
66212;SDS011;53015;50.046;8.238;2024-02-26T11:00:01;3.40;;;2.70;;
66212;SDS011;53015;50.046;8.238;2024-02-26T11:02:27;4.88;;;2.90;;
66212;SDS011;53015;50.046;8.238;2024-02-26T11:04:53;4.50;;;2.83;;
66212;SDS011;53015;50.046;8.238;2024-02-26T11:07:20;4.18;;;2.70;;
66212;SDS011;53015;50.046;8.238;2024-02-26T11:09:47;5.75;;;3.10;;
66212;SDS011;53015;50.046;8.238;2024-02-26T11:12:13;5.95;;;3.00;;
66212;SDS011;53015;50.046;8.238;2024-02-26T11:14:39;4.45;;;2.85;;
66212;SDS011;53015;50.046;8.238;2024-02-26T11:17:05;4.60;;;2.70;;
66212;SDS011;53015;50.046;8.238;2024-02-26T11:19:34;4.28;;;2.65;;
66212;SDS011;53015;50.046;8.238;2024-02-26T11:22:01;4.40;;;2.70;;
66212;SDS011;53015;50.046;8.238;2024-02-26T11:24:26;4.63;;;3.00;;
66212;SDS011;53015;50.046;8.238;2024-02-26T11:26:54;5.57;;;2.70;;
66212;SDS011;53015;50.046;8.238;2024-02-26T11:29:22;5.65;;;2.75;;
66212;SDS011;53015;50.046;8.238;2024-02-26T11:31:48;3.20;;;2.58;;
66212;SDS011;53015;50.046;8.238;2024-02-26T11:34:14;4.20;;;3.08;;
66212;SDS011;53015;50.046;8.238;2024-02-26T11:36:39;5.53;;;2.97;;
66212;SDS011;53015;50.046;8.238;2024-02-26T11:39:05;4.68;;;2.60;;
66212;SDS011;53015;50.046;8.238;2024-02-26T11:41:31;3.47;;;2.78;;
66212;SDS011;53015;50.046;8.238;2024-02-26T11:43:59;4.40;;;2.97;;
66212;SDS011;53015;50.046;8.238;2024-02-26T11:46:27;3.60;;;2.45;;
66212;SDS011;53015;50.046;8.238;2024-02-26T11:48:54;4.53;;;2.80;;
66212;SDS011;53015;50.046;8.238;2024-02-26T11:51:24;4.75;;;2.47;;
66212;SDS011;53015;50.046;8.238;2024-02-26T11:53:50;4.07;;;2.45;;
66212;SDS011;53015;50.046;8.238;2024-02-26T11:56:22;3.00;;;2.50;;
66212;SDS011;53015;50.046;8.238;2024-02-26T11:58:48;2.67;;;2.28;;
66212;SDS011;53015;50.046;8.238;2024-02-26T12:01:39;4.22;;;2.50;;
66212;SDS011;53015;50.046;8.238;2024-02-26T12:04:11;2.80;;;2.40;;
66212;SDS011;53015;50.046;8.238;2024-02-26T12:06:41;4.38;;;2.40;;
66212;SDS011;53015;50.046;8.238;2024-02-26T12:09:09;5.93;;;2.60;;
66212;SDS011;53015;50.046;8.238;2024-02-26T12:11:36;4.30;;;2.17;;
66212;SDS011;53015;50.046;8.238;2024-02-26T12:14:02;4.32;;;2.10;;
66212;SDS011;53015;50.046;8.238;2024-02-26T12:16:34;4.13;;;2.25;;
66212;SDS011;53015;50.046;8.238;2024-02-26T12:19:02;3.90;;;2.15;;
66212;SDS011;53015;50.046;8.238;2024-02-26T12:21:30;3.67;;;2.47;;
66212;SDS011;53015;50.046;8.238;2024-02-26T12:23:55;3.50;;;2.33;;
66212;SDS011;53015;50.046;8.238;2024-02-26T12:26:21;2.95;;;2.15;;
66212;SDS011;53015;50.046;8.238;2024-02-26T12:28:47;3.25;;;2.35;;
66212;SDS011;53015;50.046;8.238;2024-02-26T12:31:12;3.08;;;2.15;;
66212;SDS011;53015;50.046;8.238;2024-02-26T12:33:38;3.78;;;2.33;;
66212;SDS011;53015;50.046;8.238;2024-02-26T12:36:05;4.28;;;2.47;;
66212;SDS011;53015;50.046;8.238;2024-02-26T12:38:31;6.22;;;2.50;;
66212;SDS011;53015;50.046;8.238;2024-02-26T12:40:57;6.03;;;2.92;;
66212;SDS011;53015;50.046;8.238;2024-02-26T12:43:22;4.32;;;2.60;;
66212;SDS011;53015;50.046;8.238;2024-02-26T12:45:48;3.58;;;2.38;;
66212;SDS011;53015;50.046;8.238;2024-02-26T12:48:13;4.35;;;2.30;;
66212;SDS011;53015;50.046;8.238;2024-02-26T12:50:39;3.83;;;2.30;;
66212;SDS011;53015;50.046;8.238;2024-02-26T12:53:06;3.72;;;2.45;;
66212;SDS011;53015;50.046;8.238;2024-02-26T12:55:31;3.55;;;2.70;;
66212;SDS011;53015;50.046;8.238;2024-02-26T12:57:58;3.83;;;2.55;;
66212;SDS011;53015;50.046;8.238;2024-02-26T13:00:25;4.65;;;2.60;;
66212;SDS011;53015;50.046;8.238;2024-02-26T13:02:52;2.92;;;2.10;;
66212;SDS011;53015;50.046;8.238;2024-02-26T13:05:19;3.88;;;2.58;;
66212;SDS011;53015;50.046;8.238;2024-02-26T13:07:45;5.22;;;2.55;;
66212;SDS011;53015;50.046;8.238;2024-02-26T13:10:13;3.13;;;2.10;;
66212;SDS011;53015;50.046;8.238;2024-02-26T13:12:42;3.22;;;2.35;;
66212;SDS011;53015;50.046;8.238;2024-02-26T13:15:09;2.95;;;2.00;;
66212;SDS011;53015;50.046;8.238;2024-02-26T13:17:39;5.70;;;2.10;;
66212;SDS011;53015;50.046;8.238;2024-02-26T13:20:05;3.47;;;2.17;;
66212;SDS011;53015;50.046;8.238;2024-02-26T13:22:33;2.58;;;2.30;;
66212;SDS011;53015;50.046;8.238;2024-02-26T13:24:59;4.28;;;2.20;;
66212;SDS011;53015;50.046;8.238;2024-02-26T13:27:26;3.95;;;2.30;;
66212;SDS011;53015;50.046;8.238;2024-02-26T13:30:01;3.33;;;2.42;;
66212;SDS011;53015;50.046;8.238;2024-02-26T13:32:33;5.05;;;2.40;;
66212;SDS011;53015;50.046;8.238;2024-02-26T13:35:06;3.70;;;2.70;;
66212;SDS011;53015;50.046;8.238;2024-02-26T13:37:33;4.32;;;2.33;;
66212;SDS011;53015;50.046;8.238;2024-02-26T13:39:58;3.80;;;2.10;;
66212;SDS011;53015;50.046;8.238;2024-02-26T13:42:26;3.25;;;2.50;;
66212;SDS011;53015;50.046;8.238;2024-02-26T13:44:52;3.05;;;2.35;;
66212;SDS011;53015;50.046;8.238;2024-02-26T13:47:17;2.67;;;2.05;;
66212;SDS011;53015;50.046;8.238;2024-02-26T13:49:43;3.60;;;2.15;;
66212;SDS011;53015;50.046;8.238;2024-02-26T13:52:08;3.10;;;2.10;;
66212;SDS011;53015;50.046;8.238;2024-02-26T13:54:34;4.57;;;2.22;;
66212;SDS011;53015;50.046;8.238;2024-02-26T13:56:59;8.23;;;2.30;;
66212;SDS011;53015;50.046;8.238;2024-02-26T13:59:26;6.32;;;1.92;;
66212;SDS011;53015;50.046;8.238;2024-02-26T14:01:51;2.63;;;1.90;;
66212;SDS011;53015;50.046;8.238;2024-02-26T14:04:17;4.05;;;2.50;;
66212;SDS011;53015;50.046;8.238;2024-02-26T14:06:42;3.08;;;2.03;;
66212;SDS011;53015;50.046;8.238;2024-02-26T14:09:08;2.95;;;2.20;;
66212;SDS011;53015;50.046;8.238;2024-02-26T14:11:33;2.72;;;2.30;;
66212;SDS011;53015;50.046;8.238;2024-02-26T14:13:59;3.97;;;2.42;;
66212;SDS011;53015;50.046;8.238;2024-02-26T14:16:26;2.85;;;1.95;;
66212;SDS011;53015;50.046;8.238;2024-02-26T14:18:52;3.63;;;1.92;;
66212;SDS011;53015;50.046;8.238;2024-02-26T14:21:17;3.55;;;2.15;;
66212;SDS011;53015;50.046;8.238;2024-02-26T14:23:43;4.18;;;2.13;;
66212;SDS011;53015;50.046;8.238;2024-02-26T14:26:08;4.97;;;2.15;;
66212;SDS011;53015;50.046;8.238;2024-02-26T14:28:34;3.13;;;2.13;;
66212;SDS011;53015;50.046;8.238;2024-02-26T14:30:59;2.53;;;2.20;;
66212;SDS011;53015;50.046;8.238;2024-02-26T14:33:26;3.05;;;2.20;;
66212;SDS011;53015;50.046;8.238;2024-02-26T14:35:52;7.07;;;2.08;;
66212;SDS011;53015;50.046;8.238;2024-02-26T14:38:17;4.25;;;2.20;;
66212;SDS011;53015;50.046;8.238;2024-02-26T14:40:43;3.60;;;2.05;;